createdAt,value
2018-10-06T00:00:52.997Z,13.95
2018-10-06T00:04:58.070Z,13.55
2018-10-06T00:09:03.192Z,12.23
2018-10-06T00:13:08.238Z,12.23
2018-10-06T00:17:13.265Z,14.10
2018-10-06T00:21:18.334Z,18.17
2018-10-06T00:25:23.401Z,16.42
2018-10-06T00:29:28.470Z,15.43
2018-10-06T00:33:33.537Z,13.93
2018-10-06T00:37:38.597Z,14.00
2018-10-06T00:41:43.665Z,14.05
2018-10-06T00:45:48.749Z,14.55
2018-10-06T00:49:53.805Z,14.13
2018-10-06T00:53:58.893Z,14.13
2018-10-06T00:58:03.956Z,14.28
2018-10-06T01:02:09.089Z,14.40
2018-10-06T01:06:14.158Z,14.35
2018-10-06T01:10:19.187Z,13.22
2018-10-06T01:14:24.230Z,14.05
2018-10-06T01:18:29.278Z,13.68
2018-10-06T01:22:34.328Z,12.73
2018-10-06T01:26:39.410Z,13.20
2018-10-06T01:30:44.769Z,14.75
2018-10-06T01:34:49.848Z,14.05
2018-10-06T01:38:54.905Z,14.87
2018-10-06T01:43:00.046Z,16.93
2018-10-06T01:47:11.762Z,17.50
2018-10-06T01:51:16.787Z,17.50
2018-10-06T01:55:21.832Z,15.40
2018-10-06T01:59:26.889Z,13.50
2018-10-06T02:03:31.933Z,14.07
2018-10-06T02:07:36.980Z,13.50
2018-10-06T02:11:42.017Z,13.50
2018-10-06T02:15:47.265Z,12.80
2018-10-06T02:19:52.937Z,13.18
2018-10-06T02:23:57.977Z,14.25
2018-10-06T02:28:03.103Z,14.23
2018-10-06T02:32:08.130Z,13.35
2018-10-06T02:36:13.189Z,13.95
2018-10-06T02:40:18.248Z,13.43
2018-10-06T02:44:23.284Z,14.00
2018-10-06T02:48:28.377Z,15.35
2018-10-06T02:52:33.397Z,15.13
2018-10-06T02:56:38.420Z,14.95
2018-10-06T03:00:43.465Z,14.10
2018-10-06T03:04:48.522Z,13.05
2018-10-06T03:08:53.584Z,14.15
2018-10-06T03:12:58.591Z,14.05
2018-10-06T03:17:03.656Z,15.30
2018-10-06T03:21:08.681Z,15.15
2018-10-06T03:25:13.735Z,15.18
2018-10-06T03:29:18.784Z,14.23
2018-10-06T03:33:23.849Z,16.75
2018-10-06T03:37:28.877Z,16.93
2018-10-06T03:41:33.921Z,17.55
2018-10-06T03:45:39.193Z,17.85
2018-10-06T03:49:44.221Z,16.60
2018-10-06T03:53:49.270Z,16.85
2018-10-06T03:57:54.302Z,16.50
2018-10-06T04:01:59.327Z,15.88
2018-10-06T04:06:04.481Z,16.12
2018-10-06T04:10:09.517Z,15.93
2018-10-06T04:14:14.588Z,15.93
2018-10-06T04:18:19.644Z,17.23
2018-10-06T04:22:24.685Z,16.55
2018-10-06T04:26:29.717Z,17.25
2018-10-06T04:30:34.798Z,17.98
2018-10-06T04:34:39.819Z,17.55
2018-10-06T04:38:44.820Z,16.77
2018-10-06T04:42:49.856Z,17.05
2018-10-06T04:47:01.701Z,16.10
2018-10-06T04:51:06.753Z,16.25
2018-10-06T04:55:11.771Z,16.50
2018-10-06T04:59:16.793Z,17.77
2018-10-06T05:03:21.859Z,20.32
2018-10-06T05:07:26.797Z,22.42
2018-10-06T05:11:31.808Z,26.15
2018-10-06T05:15:36.820Z,26.05
2018-10-06T05:19:41.849Z,26.30
2018-10-06T05:23:46.904Z,26.30
2018-10-06T05:27:51.970Z,24.55
2018-10-06T05:31:56.998Z,20.80
2018-10-06T05:36:02.013Z,20.35
2018-10-06T05:40:07.124Z,21.55
2018-10-06T05:44:12.141Z,21.40
2018-10-06T05:48:17.193Z,21.10
2018-10-06T05:52:22.226Z,20.72
2018-10-06T05:56:27.268Z,19.87
2018-10-06T06:00:32.339Z,19.55
2018-10-06T06:04:37.381Z,19.80
2018-10-06T06:08:42.431Z,23.38
2018-10-06T06:12:47.470Z,23.27
2018-10-06T06:16:52.517Z,22.62
2018-10-06T06:20:57.640Z,20.25
2018-10-06T06:25:02.680Z,17.15
2018-10-06T06:29:07.705Z,17.82
2018-10-06T06:33:12.758Z,17.48
2018-10-06T06:37:17.792Z,18.87
2018-10-06T06:41:22.818Z,17.27
2018-10-06T06:45:27.841Z,17.02
2018-10-06T06:49:32.866Z,16.75
2018-10-06T06:53:37.940Z,16.75
2018-10-06T06:57:43.036Z,16.48
2018-10-06T07:01:48.050Z,18.05
2018-10-06T07:05:53.152Z,17.73
2018-10-06T07:09:58.131Z,18.42
2018-10-06T07:14:03.157Z,18.05
2018-10-06T07:18:08.221Z,17.50
2018-10-06T07:22:13.277Z,17.98
2018-10-06T07:26:18.356Z,18.30
2018-10-06T07:30:23.384Z,17.82
2018-10-06T07:34:28.462Z,17.07
2018-10-06T07:38:33.495Z,17.92
2018-10-06T07:42:38.509Z,17.37
2018-10-06T07:46:43.529Z,19.55
2018-10-06T07:50:48.672Z,17.95
2018-10-06T07:54:53.725Z,18.55
2018-10-06T07:58:58.820Z,64.85
2018-10-06T08:03:03.868Z,17.30
2018-10-06T08:07:09.525Z,18.30
2018-10-06T08:11:14.567Z,18.45
2018-10-06T08:15:19.626Z,19.35
2018-10-06T08:19:24.788Z,18.73
2018-10-06T08:23:30.029Z,21.48
2018-10-06T08:27:35.078Z,18.85
2018-10-06T08:31:40.133Z,18.92
2018-10-06T08:35:46.468Z,20.02
2018-10-06T08:39:51.530Z,21.07
2018-10-06T08:43:56.745Z,20.65
2018-10-06T08:48:01.898Z,19.50
2018-10-06T08:52:07.074Z,19.52
2018-10-06T08:56:12.238Z,18.75
2018-10-06T09:00:17.233Z,19.12
2018-10-06T09:04:22.322Z,19.17
2018-10-06T09:08:27.401Z,21.35
2018-10-06T09:12:32.454Z,32.03
2018-10-06T09:16:37.564Z,17.37
2018-10-06T09:20:42.641Z,16.93
2018-10-06T09:24:47.720Z,18.52
2018-10-06T09:28:52.785Z,16.97
2018-10-06T09:32:57.812Z,17.12
2018-10-06T09:37:03.027Z,15.93
2018-10-06T09:41:09.196Z,16.87
2018-10-06T09:45:18.735Z,17.07
2018-10-06T09:49:24.848Z,17.48
2018-10-06T09:53:30.014Z,16.15
2018-10-06T09:57:35.076Z,14.75
2018-10-06T10:01:45.466Z,13.32
2018-10-06T10:05:52.408Z,13.20
2018-10-06T10:09:57.472Z,12.80
2018-10-06T10:14:02.471Z,12.25
2018-10-06T10:18:07.687Z,12.40
2018-10-06T10:22:12.831Z,10.93
2018-10-06T10:26:17.682Z,9.98
2018-10-06T10:30:22.731Z,9.58
2018-10-06T10:34:27.824Z,8.65
2018-10-06T10:38:32.861Z,8.73
2018-10-06T10:42:37.941Z,8.53
2018-10-06T10:46:43.006Z,8.90
2018-10-06T10:50:48.969Z,8.05
2018-10-06T10:54:54.064Z,7.50
2018-10-06T10:58:59.136Z,6.22
2018-10-06T11:03:04.214Z,7.33
2018-10-06T11:07:10.402Z,6.45
2018-10-06T11:11:15.544Z,6.47
2018-10-06T11:15:20.565Z,6.92
2018-10-06T11:19:24.774Z,6.90
2018-10-06T11:23:29.702Z,7.55
2018-10-06T11:27:34.784Z,7.08
2018-10-06T11:31:39.865Z,7.30
2018-10-06T11:35:45.039Z,7.05
2018-10-06T11:39:50.120Z,7.40
2018-10-06T11:43:55.218Z,7.53
2018-10-06T11:48:00.336Z,6.95
2018-10-06T11:52:05.420Z,6.45
2018-10-06T11:56:10.549Z,6.15
2018-10-06T12:00:15.856Z,6.60
2018-10-06T12:04:20.789Z,7.60
2018-10-06T12:08:25.836Z,6.10
2018-10-06T12:12:30.904Z,6.00
2018-10-06T12:16:36.052Z,6.50
2018-10-06T12:20:41.222Z,6.65
2018-10-06T12:24:46.173Z,7.10
2018-10-06T12:28:51.234Z,6.45
2018-10-06T12:32:56.309Z,6.92
2018-10-06T12:37:01.361Z,6.17
2018-10-06T12:41:06.492Z,7.85
2018-10-06T12:45:11.753Z,7.12
2018-10-06T12:49:16.914Z,6.67
2018-10-06T12:53:22.004Z,7.20
2018-10-06T12:57:27.059Z,7.15
2018-10-06T13:01:32.139Z,7.30
2018-10-06T13:05:37.197Z,7.35
2018-10-06T13:09:42.328Z,7.00
2018-10-06T13:13:47.408Z,6.35
2018-10-06T13:17:52.485Z,7.03
2018-10-06T13:21:57.533Z,7.12
2018-10-06T13:26:02.569Z,7.10
2018-10-06T13:30:07.613Z,7.60
2018-10-06T13:34:12.700Z,7.72
2018-10-06T13:38:17.736Z,6.47
2018-10-06T13:42:22.846Z,7.03
2018-10-06T13:46:27.901Z,7.25
2018-10-06T13:50:32.953Z,6.30
2018-10-06T13:54:38.243Z,5.75
2018-10-06T13:58:43.354Z,9.48
2018-10-06T14:02:48.358Z,5.50
2018-10-06T14:06:53.437Z,5.92
2018-10-06T14:10:58.521Z,6.67
2018-10-06T14:15:03.574Z,5.85
2018-10-06T14:19:08.642Z,5.92
2018-10-06T14:23:13.704Z,5.50
2018-10-06T14:27:18.802Z,6.70
2018-10-06T14:31:23.863Z,6.33
2018-10-06T14:35:28.922Z,5.85
2018-10-06T14:39:33.985Z,6.80
2018-10-06T14:43:39.053Z,6.47
2018-10-06T14:47:44.224Z,5.83
2018-10-06T14:51:49.240Z,5.50
2018-10-06T14:55:54.673Z,6.83
2018-10-06T15:00:00.425Z,6.65
2018-10-06T15:04:05.481Z,6.05
2018-10-06T15:08:10.535Z,6.08
2018-10-06T15:12:15.658Z,4.97
2018-10-06T15:16:20.825Z,5.00
2018-10-06T15:20:26.270Z,5.17
2018-10-06T15:24:31.345Z,13.95
2018-10-06T15:28:36.523Z,5.87
2018-10-06T15:32:41.613Z,5.53
2018-10-06T15:36:46.744Z,5.83
2018-10-06T15:40:51.706Z,5.97
2018-10-06T15:44:56.824Z,6.17
2018-10-06T15:49:01.870Z,8.85
2018-10-06T15:53:06.929Z,7.30
2018-10-06T15:57:12.036Z,7.08
2018-10-06T16:01:17.084Z,6.58
2018-10-06T16:05:22.132Z,9.63
2018-10-06T16:09:27.186Z,7.72
2018-10-06T16:13:32.231Z,11.33
2018-10-06T16:17:37.277Z,14.75
2018-10-06T16:21:42.434Z,15.43
2018-10-06T16:25:47.453Z,10.80
2018-10-06T16:29:52.496Z,11.08
2018-10-06T16:33:57.549Z,12.50
2018-10-06T16:38:02.609Z,13.90
2018-10-06T16:42:07.725Z,9.63
2018-10-06T16:46:12.788Z,9.20
2018-10-06T16:50:17.853Z,9.75
2018-10-06T16:54:22.860Z,9.85
2018-10-06T16:58:28.295Z,9.38
2018-10-06T17:02:33.353Z,8.60
2018-10-06T17:06:38.482Z,9.65
2018-10-06T17:10:43.495Z,9.40
2018-10-06T17:14:48.641Z,11.15
2018-10-06T17:18:53.789Z,12.90
2018-10-06T17:22:58.861Z,16.35
2018-10-06T17:27:03.912Z,11.28
2018-10-06T17:31:08.968Z,9.48
2018-10-06T17:35:14.012Z,9.70
2018-10-06T17:39:19.058Z,8.68
2018-10-06T17:43:24.116Z,8.13
2018-10-06T17:47:29.198Z,7.83
2018-10-06T17:51:34.243Z,8.18
2018-10-06T17:55:39.301Z,9.30
2018-10-06T17:59:44.397Z,8.50
2018-10-06T18:03:49.520Z,10.78
2018-10-06T18:07:54.598Z,10.05
2018-10-06T18:11:59.658Z,8.68
2018-10-06T18:16:04.706Z,7.85
2018-10-06T18:20:09.799Z,8.50
2018-10-06T18:24:14.817Z,7.85
2018-10-06T18:28:19.869Z,7.97
2018-10-06T18:32:24.910Z,9.03
2018-10-06T18:36:30.082Z,9.00
2018-10-06T18:40:35.069Z,9.20
2018-10-06T18:44:40.257Z,9.40
2018-10-06T18:48:45.302Z,9.03
2018-10-06T18:52:50.333Z,8.80
2018-10-06T18:56:55.406Z,8.18
2018-10-06T19:01:00.424Z,7.78
2018-10-06T19:05:05.605Z,7.70
2018-10-06T19:09:10.789Z,8.00
2018-10-06T19:13:15.834Z,7.62
2018-10-06T19:17:20.915Z,7.60
2018-10-06T19:21:25.942Z,7.55
2018-10-06T19:25:31.029Z,6.85
2018-10-06T19:29:36.049Z,7.45
2018-10-06T19:33:41.144Z,7.37
2018-10-06T19:37:46.140Z,6.95
2018-10-06T19:41:51.178Z,8.38
2018-10-06T19:45:56.229Z,8.40
2018-10-06T19:50:01.317Z,7.87
2018-10-06T19:54:06.385Z,8.93
2018-10-06T19:58:11.425Z,8.23
2018-10-06T20:02:16.453Z,7.87
2018-10-06T20:06:21.590Z,8.13
2018-10-06T20:10:26.640Z,8.55
2018-10-06T20:14:31.675Z,8.48
2018-10-06T20:18:36.825Z,14.07
2018-10-06T20:22:41.923Z,14.73
2018-10-06T20:26:47.005Z,16.30
2018-10-06T20:30:52.098Z,9.63
2018-10-06T20:34:57.207Z,6.62
2018-10-06T20:39:02.261Z,9.53
2018-10-06T20:43:07.331Z,8.88
2018-10-06T20:47:12.406Z,7.55
2018-10-06T20:51:17.485Z,8.80
2018-10-06T20:55:22.613Z,12.85
2018-10-06T20:59:27.681Z,12.33
2018-10-06T21:03:32.773Z,12.85
2018-10-06T21:07:37.849Z,13.98
2018-10-06T21:11:43.109Z,13.55
2018-10-06T21:15:48.238Z,12.00
2018-10-06T21:19:53.349Z,12.05
2018-10-06T21:23:58.402Z,11.38
2018-10-06T21:28:03.473Z,12.58
2018-10-06T21:32:08.719Z,12.75
2018-10-06T21:36:13.767Z,13.90
2018-10-06T21:40:19.078Z,12.58
2018-10-06T21:44:24.149Z,12.70
2018-10-06T21:48:29.208Z,12.85
2018-10-06T21:52:34.228Z,13.05
2018-10-06T21:56:39.300Z,16.73
2018-10-06T22:00:44.389Z,14.75
2018-10-06T22:04:49.450Z,15.70
2018-10-06T22:08:55.249Z,13.30
2018-10-06T22:13:00.276Z,12.40
2018-10-06T22:17:05.357Z,13.00
2018-10-06T22:21:10.452Z,12.68
2018-10-06T22:25:15.525Z,12.60
2018-10-06T22:29:20.683Z,12.55
2018-10-06T22:33:25.677Z,14.90
2018-10-06T22:37:30.757Z,14.95
2018-10-06T22:41:35.778Z,13.62
2018-10-06T22:45:40.824Z,13.83
2018-10-06T22:49:45.848Z,12.82
2018-10-06T22:53:50.898Z,12.37
2018-10-06T22:57:55.995Z,13.05
2018-10-06T23:02:00.988Z,13.25
2018-10-06T23:06:06.986Z,12.03
2018-10-06T23:10:12.036Z,12.35
2018-10-06T23:14:17.041Z,14.43
2018-10-06T23:18:22.085Z,13.38
2018-10-06T23:22:27.168Z,14.85
2018-10-06T23:26:32.221Z,13.22
2018-10-06T23:30:37.281Z,13.18
2018-10-06T23:34:42.317Z,18.52
2018-10-06T23:38:47.358Z,18.73
2018-10-06T23:42:52.426Z,18.52
2018-10-06T23:46:57.470Z,19.60
2018-10-06T23:51:02.518Z,19.02
2018-10-06T23:55:07.585Z,17.87
2018-10-06T23:59:12.602Z,18.75
